sensor_id;sensor_type;location;lat;lon;timestamp;P1;durP1;ratioP1;P2;durP2;ratioP2
48199;SDS011;33990;44.602;10.976;2023-03-26T00:01:33;8.02;;;3.63;;
48199;SDS011;33990;44.602;10.976;2023-03-26T00:04:03;8.02;;;3.45;;
48199;SDS011;33990;44.602;10.976;2023-03-26T00:06:34;5.93;;;3.13;;
48199;SDS011;33990;44.602;10.976;2023-03-26T00:09:06;7.40;;;3.65;;
48199;SDS011;33990;44.602;10.976;2023-03-26T00:11:35;7.68;;;3.33;;
48199;SDS011;33990;44.602;10.976;2023-03-26T00:14:03;6.63;;;3.28;;
48199;SDS011;33990;44.602;10.976;2023-03-26T00:16:31;6.75;;;3.17;;
48199;SDS011;33990;44.602;10.976;2023-03-26T00:19:00;6.50;;;3.55;;
48199;SDS011;33990;44.602;10.976;2023-03-26T00:21:28;5.50;;;3.40;;
48199;SDS011;33990;44.602;10.976;2023-03-26T00:23:58;7.07;;;3.88;;
48199;SDS011;33990;44.602;10.976;2023-03-26T00:26:34;6.18;;;3.47;;
48199;SDS011;33990;44.602;10.976;2023-03-26T00:29:04;6.93;;;3.35;;
48199;SDS011;33990;44.602;10.976;2023-03-26T00:31:32;5.97;;;3.42;;
48199;SDS011;33990;44.602;10.976;2023-03-26T00:34:01;5.25;;;3.20;;
48199;SDS011;33990;44.602;10.976;2023-03-26T00:36:32;5.70;;;3.22;;
48199;SDS011;33990;44.602;10.976;2023-03-26T00:39:03;7.40;;;3.72;;
48199;SDS011;33990;44.602;10.976;2023-03-26T00:41:32;4.35;;;3.30;;
48199;SDS011;33990;44.602;10.976;2023-03-26T00:44:03;4.90;;;3.17;;
48199;SDS011;33990;44.602;10.976;2023-03-26T00:46:31;6.65;;;3.40;;
48199;SDS011;33990;44.602;10.976;2023-03-26T00:48:59;5.85;;;3.28;;
48199;SDS011;33990;44.602;10.976;2023-03-26T00:51:28;8.02;;;3.65;;
48199;SDS011;33990;44.602;10.976;2023-03-26T00:53:56;6.22;;;2.95;;
48199;SDS011;33990;44.602;10.976;2023-03-26T00:56:24;6.28;;;3.53;;
48199;SDS011;33990;44.602;10.976;2023-03-26T00:58:51;6.90;;;3.83;;
48199;SDS011;33990;44.602;10.976;2023-03-26T01:01:22;6.65;;;3.67;;
48199;SDS011;33990;44.602;10.976;2023-03-26T01:03:56;5.35;;;3.42;;
48199;SDS011;33990;44.602;10.976;2023-03-26T01:06:35;6.38;;;3.05;;
48199;SDS011;33990;44.602;10.976;2023-03-26T01:09:48;6.47;;;2.90;;
48199;SDS011;33990;44.602;10.976;2023-03-26T01:11:59;4.40;;;3.10;;
48199;SDS011;33990;44.602;10.976;2023-03-26T01:14:29;5.32;;;3.97;;
48199;SDS011;33990;44.602;10.976;2023-03-26T01:16:57;6.47;;;3.35;;
48199;SDS011;33990;44.602;10.976;2023-03-26T01:22:13;5.32;;;2.90;;
48199;SDS011;33990;44.602;10.976;2023-03-26T01:24:42;4.63;;;2.83;;
48199;SDS011;33990;44.602;10.976;2023-03-26T01:30:48;6.25;;;3.03;;
48199;SDS011;33990;44.602;10.976;2023-03-26T01:33:11;7.47;;;3.72;;
48199;SDS011;33990;44.602;10.976;2023-03-26T01:43:38;5.53;;;3.25;;
48199;SDS011;33990;44.602;10.976;2023-03-26T01:46:10;4.55;;;3.05;;
48199;SDS011;33990;44.602;10.976;2023-03-26T01:48:39;4.80;;;3.78;;
48199;SDS011;33990;44.602;10.976;2023-03-26T01:51:09;5.07;;;3.50;;
48199;SDS011;33990;44.602;10.976;2023-03-26T01:53:42;4.97;;;3.53;;
48199;SDS011;33990;44.602;10.976;2023-03-26T01:56:35;6.85;;;3.17;;
48199;SDS011;33990;44.602;10.976;2023-03-26T02:02:13;6.60;;;3.30;;
48199;SDS011;33990;44.602;10.976;2023-03-26T02:10:10;5.88;;;3.33;;
48199;SDS011;33990;44.602;10.976;2023-03-26T02:12:44;6.10;;;3.15;;
48199;SDS011;33990;44.602;10.976;2023-03-26T02:15:11;5.15;;;3.40;;
48199;SDS011;33990;44.602;10.976;2023-03-26T02:17:39;4.82;;;2.90;;
48199;SDS011;33990;44.602;10.976;2023-03-26T02:20:07;5.80;;;3.67;;
48199;SDS011;33990;44.602;10.976;2023-03-26T02:22:37;6.10;;;3.17;;
48199;SDS011;33990;44.602;10.976;2023-03-26T02:25:10;4.93;;;3.80;;
48199;SDS011;33990;44.602;10.976;2023-03-26T02:27:39;4.20;;;3.05;;
48199;SDS011;33990;44.602;10.976;2023-03-26T02:30:11;5.20;;;3.38;;
48199;SDS011;33990;44.602;10.976;2023-03-26T02:32:57;7.93;;;3.30;;
48199;SDS011;33990;44.602;10.976;2023-03-26T02:35:33;6.68;;;3.38;;
48199;SDS011;33990;44.602;10.976;2023-03-26T02:38:02;4.45;;;2.80;;
48199;SDS011;33990;44.602;10.976;2023-03-26T02:40:29;4.82;;;3.10;;
48199;SDS011;33990;44.602;10.976;2023-03-26T02:42:57;5.95;;;2.83;;
48199;SDS011;33990;44.602;10.976;2023-03-26T02:45:27;5.80;;;3.38;;
48199;SDS011;33990;44.602;10.976;2023-03-26T02:50:46;4.82;;;3.65;;
48199;SDS011;33990;44.602;10.976;2023-03-26T02:53:34;6.20;;;3.42;;
48199;SDS011;33990;44.602;10.976;2023-03-26T02:56:26;8.35;;;3.78;;
48199;SDS011;33990;44.602;10.976;2023-03-26T02:59:14;7.38;;;3.42;;
48199;SDS011;33990;44.602;10.976;2023-03-26T03:01:44;4.05;;;3.08;;
48199;SDS011;33990;44.602;10.976;2023-03-26T03:04:14;5.80;;;3.30;;
48199;SDS011;33990;44.602;10.976;2023-03-26T03:06:41;5.22;;;3.13;;
48199;SDS011;33990;44.602;10.976;2023-03-26T03:09:10;4.93;;;3.17;;
48199;SDS011;33990;44.602;10.976;2023-03-26T03:11:38;4.57;;;3.03;;
48199;SDS011;33990;44.602;10.976;2023-03-26T03:14:07;4.20;;;2.92;;
48199;SDS011;33990;44.602;10.976;2023-03-26T03:16:34;5.55;;;2.88;;
48199;SDS011;33990;44.602;10.976;2023-03-26T03:19:05;4.47;;;3.40;;
48199;SDS011;33990;44.602;10.976;2023-03-26T03:21:37;4.13;;;2.78;;
48199;SDS011;33990;44.602;10.976;2023-03-26T03:24:06;3.88;;;3.00;;
48199;SDS011;33990;44.602;10.976;2023-03-26T03:26:45;4.68;;;3.20;;
48199;SDS011;33990;44.602;10.976;2023-03-26T03:29:34;6.32;;;2.72;;
48199;SDS011;33990;44.602;10.976;2023-03-26T03:32:22;4.90;;;2.95;;
48199;SDS011;33990;44.602;10.976;2023-03-26T03:34:52;5.20;;;2.88;;
48199;SDS011;33990;44.602;10.976;2023-03-26T03:37:19;5.32;;;3.13;;
48199;SDS011;33990;44.602;10.976;2023-03-26T03:39:51;5.75;;;2.83;;
48199;SDS011;33990;44.602;10.976;2023-03-26T03:42:21;4.57;;;2.90;;
48199;SDS011;33990;44.602;10.976;2023-03-26T03:44:51;3.55;;;2.70;;
48199;SDS011;33990;44.602;10.976;2023-03-26T03:47:41;5.97;;;3.20;;
48199;SDS011;33990;44.602;10.976;2023-03-26T03:50:08;5.38;;;2.60;;
48199;SDS011;33990;44.602;10.976;2023-03-26T03:52:42;4.47;;;2.90;;
48199;SDS011;33990;44.602;10.976;2023-03-26T03:55:11;5.03;;;3.20;;
48199;SDS011;33990;44.602;10.976;2023-03-26T03:57:47;5.60;;;3.22;;
48199;SDS011;33990;44.602;10.976;2023-03-26T04:00:18;6.35;;;3.78;;
48199;SDS011;33990;44.602;10.976;2023-03-26T04:02:57;4.32;;;2.97;;
48199;SDS011;33990;44.602;10.976;2023-03-26T04:05:27;8.07;;;3.58;;
48199;SDS011;33990;44.602;10.976;2023-03-26T04:07:54;4.88;;;3.00;;
48199;SDS011;33990;44.602;10.976;2023-03-26T04:10:25;6.95;;;3.47;;
48199;SDS011;33990;44.602;10.976;2023-03-26T04:13:11;5.28;;;3.33;;
48199;SDS011;33990;44.602;10.976;2023-03-26T04:18:22;4.10;;;3.50;;
48199;SDS011;33990;44.602;10.976;2023-03-26T04:20:50;6.43;;;3.15;;
48199;SDS011;33990;44.602;10.976;2023-03-26T04:23:23;5.38;;;3.42;;
48199;SDS011;33990;44.602;10.976;2023-03-26T04:26:02;5.53;;;3.85;;
48199;SDS011;33990;44.602;10.976;2023-03-26T04:28:57;4.47;;;2.97;;
48199;SDS011;33990;44.602;10.976;2023-03-26T04:31:30;5.65;;;3.90;;
48199;SDS011;33990;44.602;10.976;2023-03-26T04:34:01;4.80;;;3.05;;
48199;SDS011;33990;44.602;10.976;2023-03-26T04:36:41;4.43;;;3.17;;
48199;SDS011;33990;44.602;10.976;2023-03-26T04:39:09;3.50;;;3.00;;
48199;SDS011;33990;44.602;10.976;2023-03-26T04:41:57;9.70;;;3.92;;
48199;SDS011;33990;44.602;10.976;2023-03-26T04:44:30;5.65;;;3.95;;
48199;SDS011;33990;44.602;10.976;2023-03-26T04:47:05;6.03;;;3.78;;
48199;SDS011;33990;44.602;10.976;2023-03-26T04:49:43;4.80;;;3.38;;
48199;SDS011;33990;44.602;10.976;2023-03-26T04:52:13;5.07;;;3.17;;
48199;SDS011;33990;44.602;10.976;2023-03-26T04:54:56;5.40;;;3.40;;
48199;SDS011;33990;44.602;10.976;2023-03-26T04:57:29;5.22;;;3.30;;
48199;SDS011;33990;44.602;10.976;2023-03-26T05:00:10;4.38;;;3.00;;
48199;SDS011;33990;44.602;10.976;2023-03-26T05:02:50;6.82;;;3.60;;
48199;SDS011;33990;44.602;10.976;2023-03-26T05:05:20;6.22;;;3.35;;
48199;SDS011;33990;44.602;10.976;2023-03-26T05:07:49;6.22;;;4.00;;
48199;SDS011;33990;44.602;10.976;2023-03-26T05:10:18;5.03;;;3.63;;
48199;SDS011;33990;44.602;10.976;2023-03-26T05:12:54;4.85;;;3.33;;
48199;SDS011;33990;44.602;10.976;2023-03-26T05:15:25;4.80;;;3.53;;
48199;SDS011;33990;44.602;10.976;2023-03-26T05:17:53;4.40;;;3.00;;
48199;SDS011;33990;44.602;10.976;2023-03-26T05:20:27;5.40;;;4.03;;
48199;SDS011;33990;44.602;10.976;2023-03-26T05:22:56;5.07;;;3.70;;
48199;SDS011;33990;44.602;10.976;2023-03-26T05:25:29;5.35;;;3.65;;
48199;SDS011;33990;44.602;10.976;2023-03-26T05:27:59;6.43;;;4.43;;
48199;SDS011;33990;44.602;10.976;2023-03-26T05:30:47;5.35;;;4.05;;
48199;SDS011;33990;44.602;10.976;2023-03-26T05:33:14;7.78;;;4.80;;
48199;SDS011;33990;44.602;10.976;2023-03-26T05:36:03;6.47;;;4.50;;
48199;SDS011;33990;44.602;10.976;2023-03-26T05:38:33;6.88;;;4.13;;
48199;SDS011;33990;44.602;10.976;2023-03-26T05:41:04;7.68;;;4.45;;
48199;SDS011;33990;44.602;10.976;2023-03-26T05:43:35;8.65;;;4.93;;
48199;SDS011;33990;44.602;10.976;2023-03-26T05:46:09;5.43;;;4.03;;
48199;SDS011;33990;44.602;10.976;2023-03-26T05:48:38;7.38;;;4.13;;
48199;SDS011;33990;44.602;10.976;2023-03-26T05:51:06;7.78;;;4.70;;
48199;SDS011;33990;44.602;10.976;2023-03-26T05:53:39;4.75;;;4.13;;
48199;SDS011;33990;44.602;10.976;2023-03-26T05:56:29;6.70;;;4.18;;
48199;SDS011;33990;44.602;10.976;2023-03-26T05:59:15;5.78;;;4.68;;
48199;SDS011;33990;44.602;10.976;2023-03-26T06:02:01;6.95;;;5.05;;
48199;SDS011;33990;44.602;10.976;2023-03-26T06:04:37;7.78;;;4.90;;
48199;SDS011;33990;44.602;10.976;2023-03-26T06:07:40;5.72;;;4.25;;
48199;SDS011;33990;44.602;10.976;2023-03-26T06:10:18;7.82;;;4.82;;
48199;SDS011;33990;44.602;10.976;2023-03-26T06:12:46;6.53;;;5.03;;
48199;SDS011;33990;44.602;10.976;2023-03-26T06:15:13;6.88;;;5.13;;
48199;SDS011;33990;44.602;10.976;2023-03-26T06:17:57;9.65;;;5.80;;
48199;SDS011;33990;44.602;10.976;2023-03-26T06:20:35;5.90;;;4.55;;
48199;SDS011;33990;44.602;10.976;2023-03-26T06:23:09;6.00;;;4.60;;
48199;SDS011;33990;44.602;10.976;2023-03-26T06:25:53;6.15;;;4.25;;
48199;SDS011;33990;44.602;10.976;2023-03-26T06:28:39;6.10;;;4.55;;
48199;SDS011;33990;44.602;10.976;2023-03-26T06:31:25;7.05;;;4.15;;
48199;SDS011;33990;44.602;10.976;2023-03-26T06:34:12;4.28;;;3.60;;
48199;SDS011;33990;44.602;10.976;2023-03-26T06:36:39;7.10;;;4.53;;
48199;SDS011;33990;44.602;10.976;2023-03-26T06:39:10;5.82;;;4.18;;
48199;SDS011;33990;44.602;10.976;2023-03-26T06:41:47;4.93;;;3.85;;
48199;SDS011;33990;44.602;10.976;2023-03-26T06:44:35;5.53;;;3.97;;
48199;SDS011;33990;44.602;10.976;2023-03-26T06:47:31;6.20;;;4.43;;
48199;SDS011;33990;44.602;10.976;2023-03-26T06:50:11;6.00;;;4.00;;
48199;SDS011;33990;44.602;10.976;2023-03-26T06:52:56;10.45;;;4.72;;
48199;SDS011;33990;44.602;10.976;2023-03-26T06:55:39;5.05;;;3.67;;
48199;SDS011;33990;44.602;10.976;2023-03-26T06:58:26;5.50;;;3.72;;
48199;SDS011;33990;44.602;10.976;2023-03-26T07:01:11;4.72;;;3.75;;
48199;SDS011;33990;44.602;10.976;2023-03-26T07:03:57;6.25;;;4.45;;
48199;SDS011;33990;44.602;10.976;2023-03-26T07:06:51;5.53;;;3.95;;
48199;SDS011;33990;44.602;10.976;2023-03-26T07:09:38;5.72;;;4.03;;
48199;SDS011;33990;44.602;10.976;2023-03-26T07:12:37;5.13;;;3.75;;
48199;SDS011;33990;44.602;10.976;2023-03-26T07:15:26;4.47;;;3.33;;
48199;SDS011;33990;44.602;10.976;2023-03-26T07:17:54;6.53;;;4.15;;
48199;SDS011;33990;44.602;10.976;2023-03-26T07:20:30;5.72;;;3.65;;
48199;SDS011;33990;44.602;10.976;2023-03-26T07:22:58;8.57;;;3.97;;
48199;SDS011;33990;44.602;10.976;2023-03-26T07:25:34;5.10;;;3.88;;
48199;SDS011;33990;44.602;10.976;2023-03-26T07:34:33;6.45;;;4.53;;
48199;SDS011;33990;44.602;10.976;2023-03-26T07:43:52;7.15;;;4.13;;
48199;SDS011;33990;44.602;10.976;2023-03-26T07:46:46;6.60;;;4.63;;
48199;SDS011;33990;44.602;10.976;2023-03-26T07:49:32;5.38;;;4.47;;
48199;SDS011;33990;44.602;10.976;2023-03-26T07:52:08;5.18;;;3.90;;
48199;SDS011;33990;44.602;10.976;2023-03-26T07:55:15;5.97;;;4.50;;
48199;SDS011;33990;44.602;10.976;2023-03-26T07:58:14;7.45;;;4.47;;
48199;SDS011;33990;44.602;10.976;2023-03-26T08:04:13;5.38;;;4.35;;
48199;SDS011;33990;44.602;10.976;2023-03-26T08:07:33;5.03;;;4.05;;
48199;SDS011;33990;44.602;10.976;2023-03-26T08:13:24;6.03;;;4.55;;
48199;SDS011;33990;44.602;10.976;2023-03-26T08:23:59;5.65;;;3.85;;
48199;SDS011;33990;44.602;10.976;2023-03-26T08:31:54;5.05;;;3.63;;
48199;SDS011;33990;44.602;10.976;2023-03-26T08:34:23;4.90;;;4.22;;
48199;SDS011;33990;44.602;10.976;2023-03-26T08:36:50;5.78;;;3.67;;
48199;SDS011;33990;44.602;10.976;2023-03-26T08:39:18;4.50;;;3.78;;
48199;SDS011;33990;44.602;10.976;2023-03-26T09:08:15;12.63;;;8.13;;
48199;SDS011;33990;44.602;10.976;2023-03-26T09:16:50;10.93;;;8.90;;
48199;SDS011;33990;44.602;10.976;2023-03-26T09:34:03;6.50;;;5.07;;
48199;SDS011;33990;44.602;10.976;2023-03-26T09:36:53;8.45;;;6.55;;
48199;SDS011;33990;44.602;10.976;2023-03-26T09:56:45;11.48;;;7.75;;
48199;SDS011;33990;44.602;10.976;2023-03-26T09:59:26;9.70;;;7.57;;
48199;SDS011;33990;44.602;10.976;2023-03-26T10:11:06;7.35;;;5.82;;
48199;SDS011;33990;44.602;10.976;2023-03-26T10:13:55;10.20;;;6.15;;
48199;SDS011;33990;44.602;10.976;2023-03-26T10:16:29;8.23;;;5.40;;
48199;SDS011;33990;44.602;10.976;2023-03-26T10:24:50;7.72;;;4.00;;
48199;SDS011;33990;44.602;10.976;2023-03-26T10:27:29;7.50;;;4.18;;
48199;SDS011;33990;44.602;10.976;2023-03-26T10:51:40;5.18;;;3.22;;
48199;SDS011;33990;44.602;10.976;2023-03-26T10:54:36;7.18;;;3.35;;
48199;SDS011;33990;44.602;10.976;2023-03-26T10:59:53;5.22;;;3.05;;
48199;SDS011;33990;44.602;10.976;2023-03-26T11:07:55;6.00;;;3.20;;
48199;SDS011;33990;44.602;10.976;2023-03-26T11:13:28;5.00;;;2.70;;
48199;SDS011;33990;44.602;10.976;2023-03-26T11:16:00;5.47;;;2.80;;
48199;SDS011;33990;44.602;10.976;2023-03-26T11:18:36;6.38;;;2.83;;
48199;SDS011;33990;44.602;10.976;2023-03-26T11:21:07;5.28;;;2.72;;
48199;SDS011;33990;44.602;10.976;2023-03-26T11:32:14;5.18;;;2.78;;
48199;SDS011;33990;44.602;10.976;2023-03-26T11:37:30;6.13;;;3.42;;
48199;SDS011;33990;44.602;10.976;2023-03-26T11:40:01;7.05;;;3.55;;
48199;SDS011;33990;44.602;10.976;2023-03-26T11:42:37;9.88;;;3.65;;
48199;SDS011;33990;44.602;10.976;2023-03-26T11:45:11;8.98;;;3.35;;
48199;SDS011;33990;44.602;10.976;2023-03-26T11:47:44;8.60;;;3.20;;
48199;SDS011;33990;44.602;10.976;2023-03-26T11:50:20;7.88;;;3.72;;
48199;SDS011;33990;44.602;10.976;2023-03-26T11:53:02;10.15;;;3.40;;
48199;SDS011;33990;44.602;10.976;2023-03-26T11:55:39;7.13;;;3.38;;
48199;SDS011;33990;44.602;10.976;2023-03-26T11:58:21;5.77;;;3.13;;
48199;SDS011;33990;44.602;10.976;2023-03-26T12:00:50;11.05;;;2.60;;
48199;SDS011;33990;44.602;10.976;2023-03-26T12:03:20;6.60;;;3.40;;
48199;SDS011;33990;44.602;10.976;2023-03-26T12:05:51;7.38;;;2.97;;
48199;SDS011;33990;44.602;10.976;2023-03-26T12:08:37;4.97;;;2.67;;
48199;SDS011;33990;44.602;10.976;2023-03-26T12:11:09;7.20;;;2.92;;
48199;SDS011;33990;44.602;10.976;2023-03-26T12:16:11;7.43;;;3.17;;
48199;SDS011;33990;44.602;10.976;2023-03-26T12:18:42;10.57;;;3.55;;
48199;SDS011;33990;44.602;10.976;2023-03-26T12:26:39;5.10;;;2.90;;
48199;SDS011;33990;44.602;10.976;2023-03-26T12:29:12;10.02;;;3.45;;
48199;SDS011;33990;44.602;10.976;2023-03-26T12:31:47;4.78;;;2.60;;
48199;SDS011;33990;44.602;10.976;2023-03-26T12:34:18;6.65;;;3.10;;
48199;SDS011;33990;44.602;10.976;2023-03-26T12:36:48;5.50;;;3.08;;
48199;SDS011;33990;44.602;10.976;2023-03-26T12:39:25;4.80;;;2.90;;
48199;SDS011;33990;44.602;10.976;2023-03-26T12:42:30;8.35;;;3.50;;
48199;SDS011;33990;44.602;10.976;2023-03-26T12:45:21;6.30;;;3.13;;
48199;SDS011;33990;44.602;10.976;2023-03-26T12:48:37;4.90;;;2.53;;
48199;SDS011;33990;44.602;10.976;2023-03-26T13:07:44;7.68;;;2.50;;
48199;SDS011;33990;44.602;10.976;2023-03-26T13:10:25;8.18;;;3.00;;
48199;SDS011;33990;44.602;10.976;2023-03-26T13:16:00;6.97;;;2.78;;
48199;SDS011;33990;44.602;10.976;2023-03-26T13:21:14;4.88;;;2.58;;
48199;SDS011;33990;44.602;10.976;2023-03-26T13:48:35;4.85;;;2.08;;
48199;SDS011;33990;44.602;10.976;2023-03-26T13:51:53;4.68;;;2.47;;
48199;SDS011;33990;44.602;10.976;2023-03-26T13:54:25;5.78;;;2.80;;
48199;SDS011;33990;44.602;10.976;2023-03-26T13:59:34;4.25;;;2.20;;
48199;SDS011;33990;44.602;10.976;2023-03-26T14:02:15;3.97;;;2.08;;
48199;SDS011;33990;44.602;10.976;2023-03-26T14:04:50;5.43;;;2.30;;
48199;SDS011;33990;44.602;10.976;2023-03-26T14:07:33;4.82;;;2.20;;
48199;SDS011;33990;44.602;10.976;2023-03-26T14:10:11;5.07;;;2.08;;
48199;SDS011;33990;44.602;10.976;2023-03-26T14:12:54;6.20;;;2.40;;
48199;SDS011;33990;44.602;10.976;2023-03-26T14:15:27;5.25;;;2.30;;
48199;SDS011;33990;44.602;10.976;2023-03-26T14:26:45;3.95;;;2.00;;
48199;SDS011;33990;44.602;10.976;2023-03-26T14:34:35;5.55;;;1.95;;
48199;SDS011;33990;44.602;10.976;2023-03-26T14:40:13;3.10;;;1.98;;
48199;SDS011;33990;44.602;10.976;2023-03-26T14:51:10;3.03;;;1.67;;
48199;SDS011;33990;44.602;10.976;2023-03-26T14:53:55;4.93;;;1.95;;
48199;SDS011;33990;44.602;10.976;2023-03-26T15:20:49;4.72;;;2.03;;
48199;SDS011;33990;44.602;10.976;2023-03-26T15:34:50;4.50;;;2.33;;
48199;SDS011;33990;44.602;10.976;2023-03-26T15:43:08;4.30;;;1.80;;
48199;SDS011;33990;44.602;10.976;2023-03-26T15:51:30;3.33;;;1.80;;
48199;SDS011;33990;44.602;10.976;2023-03-26T15:56:43;3.00;;;1.45;;
48199;SDS011;33990;44.602;10.976;2023-03-26T16:02:53;2.95;;;1.58;;
48199;SDS011;33990;44.602;10.976;2023-03-26T16:05:56;3.85;;;1.55;;
48199;SDS011;33990;44.602;10.976;2023-03-26T16:16:53;3.15;;;2.10;;
48199;SDS011;33990;44.602;10.976;2023-03-26T16:22:34;3.33;;;1.73;;
48199;SDS011;33990;44.602;10.976;2023-03-26T16:31:33;4.50;;;1.90;;
48199;SDS011;33990;44.602;10.976;2023-03-26T16:33:56;2.80;;;1.58;;
48199;SDS011;33990;44.602;10.976;2023-03-26T16:36:44;3.72;;;1.67;;
48199;SDS011;33990;44.602;10.976;2023-03-26T16:39:17;3.75;;;2.08;;
48199;SDS011;33990;44.602;10.976;2023-03-26T16:41:56;2.88;;;1.55;;
48199;SDS011;33990;44.602;10.976;2023-03-26T16:44:42;3.60;;;1.60;;
48199;SDS011;33990;44.602;10.976;2023-03-26T16:47:25;2.78;;;1.35;;
48199;SDS011;33990;44.602;10.976;2023-03-26T16:50:21;2.97;;;1.65;;
48199;SDS011;33990;44.602;10.976;2023-03-26T16:55:42;4.65;;;1.75;;
48199;SDS011;33990;44.602;10.976;2023-03-26T16:58:26;5.38;;;2.25;;
48199;SDS011;33990;44.602;10.976;2023-03-26T17:03:31;4.80;;;1.92;;
48199;SDS011;33990;44.602;10.976;2023-03-26T17:06:26;5.90;;;2.50;;
48199;SDS011;33990;44.602;10.976;2023-03-26T17:11:45;4.95;;;1.92;;
48199;SDS011;33990;44.602;10.976;2023-03-26T17:20:24;5.70;;;2.22;;
48199;SDS011;33990;44.602;10.976;2023-03-26T17:26:22;4.78;;;2.78;;
48199;SDS011;33990;44.602;10.976;2023-03-26T17:42:25;11.05;;;5.68;;
48199;SDS011;33990;44.602;10.976;2023-03-26T17:45:02;12.27;;;5.97;;
48199;SDS011;33990;44.602;10.976;2023-03-26T17:53:22;10.32;;;5.10;;
48199;SDS011;33990;44.602;10.976;2023-03-26T17:55:54;11.20;;;5.10;;
48199;SDS011;33990;44.602;10.976;2023-03-26T17:58:35;9.30;;;3.90;;
48199;SDS011;33990;44.602;10.976;2023-03-26T18:03:38;8.98;;;4.20;;
48199;SDS011;33990;44.602;10.976;2023-03-26T18:06:35;5.97;;;3.38;;
48199;SDS011;33990;44.602;10.976;2023-03-26T18:17:38;7.50;;;2.90;;
48199;SDS011;33990;44.602;10.976;2023-03-26T18:20:18;7.53;;;3.28;;
48199;SDS011;33990;44.602;10.976;2023-03-26T18:22:47;8.98;;;3.67;;
48199;SDS011;33990;44.602;10.976;2023-03-26T18:25:23;14.88;;;3.47;;
48199;SDS011;33990;44.602;10.976;2023-03-26T18:27:54;6.82;;;3.90;;
48199;SDS011;33990;44.602;10.976;2023-03-26T18:30:23;7.20;;;3.13;;
48199;SDS011;33990;44.602;10.976;2023-03-26T18:35:34;6.43;;;2.83;;
48199;SDS011;33990;44.602;10.976;2023-03-26T18:38:11;8.40;;;3.30;;
48199;SDS011;33990;44.602;10.976;2023-03-26T18:40:42;4.97;;;3.15;;
48199;SDS011;33990;44.602;10.976;2023-03-26T18:43:18;8.15;;;3.58;;
48199;SDS011;33990;44.602;10.976;2023-03-26T18:46:01;7.63;;;2.63;;
48199;SDS011;33990;44.602;10.976;2023-03-26T18:48:30;6.47;;;3.03;;
48199;SDS011;33990;44.602;10.976;2023-03-26T18:51:01;8.15;;;2.78;;
48199;SDS011;33990;44.602;10.976;2023-03-26T18:53:36;6.60;;;3.42;;
48199;SDS011;33990;44.602;10.976;2023-03-26T18:59:06;5.13;;;2.25;;
48199;SDS011;33990;44.602;10.976;2023-03-26T19:01:54;6.03;;;2.70;;
48199;SDS011;33990;44.602;10.976;2023-03-26T19:04:24;5.55;;;3.20;;
48199;SDS011;33990;44.602;10.976;2023-03-26T19:06:52;4.43;;;2.65;;
48199;SDS011;33990;44.602;10.976;2023-03-26T19:09:22;5.38;;;2.88;;
48199;SDS011;33990;44.602;10.976;2023-03-26T19:12:12;5.40;;;2.55;;
48199;SDS011;33990;44.602;10.976;2023-03-26T19:14:53;6.07;;;2.28;;
48199;SDS011;33990;44.602;10.976;2023-03-26T19:17:21;6.88;;;2.95;;
48199;SDS011;33990;44.602;10.976;2023-03-26T19:19:53;5.97;;;2.72;;
48199;SDS011;33990;44.602;10.976;2023-03-26T19:22:23;6.60;;;2.75;;
48199;SDS011;33990;44.602;10.976;2023-03-26T19:24:54;6.68;;;2.85;;
48199;SDS011;33990;44.602;10.976;2023-03-26T19:27:25;7.28;;;2.78;;
48199;SDS011;33990;44.602;10.976;2023-03-26T19:29:53;4.47;;;2.05;;
48199;SDS011;33990;44.602;10.976;2023-03-26T19:32:30;5.30;;;2.50;;
48199;SDS011;33990;44.602;10.976;2023-03-26T19:34:59;6.28;;;3.05;;
48199;SDS011;33990;44.602;10.976;2023-03-26T19:37:28;7.50;;;2.88;;
48199;SDS011;33990;44.602;10.976;2023-03-26T19:40:19;6.72;;;3.17;;
48199;SDS011;33990;44.602;10.976;2023-03-26T19:42:56;7.20;;;2.65;;
48199;SDS011;33990;44.602;10.976;2023-03-26T19:45:24;8.02;;;2.40;;
48199;SDS011;33990;44.602;10.976;2023-03-26T19:47:52;5.95;;;2.85;;
48199;SDS011;33990;44.602;10.976;2023-03-26T19:50:41;7.38;;;2.80;;
48199;SDS011;33990;44.602;10.976;2023-03-26T19:58:22;6.85;;;2.17;;
48199;SDS011;33990;44.602;10.976;2023-03-26T20:00:52;5.63;;;2.35;;
48199;SDS011;33990;44.602;10.976;2023-03-26T20:03:28;4.55;;;2.13;;
48199;SDS011;33990;44.602;10.976;2023-03-26T20:06:04;7.25;;;2.45;;
48199;SDS011;33990;44.602;10.976;2023-03-26T20:08:32;4.25;;;2.22;;
48199;SDS011;33990;44.602;10.976;2023-03-26T20:11:00;4.82;;;2.15;;
48199;SDS011;33990;44.602;10.976;2023-03-26T20:13:27;4.60;;;1.88;;
48199;SDS011;33990;44.602;10.976;2023-03-26T20:16:01;4.65;;;2.00;;
48199;SDS011;33990;44.602;10.976;2023-03-26T20:18:33;4.80;;;2.33;;
48199;SDS011;33990;44.602;10.976;2023-03-26T20:21:01;3.88;;;2.00;;
48199;SDS011;33990;44.602;10.976;2023-03-26T20:23:34;4.20;;;1.70;;
48199;SDS011;33990;44.602;10.976;2023-03-26T20:26:02;4.32;;;1.95;;
48199;SDS011;33990;44.602;10.976;2023-03-26T20:28:30;3.63;;;1.67;;
48199;SDS011;33990;44.602;10.976;2023-03-26T20:31:17;4.38;;;1.65;;
48199;SDS011;33990;44.602;10.976;2023-03-26T20:33:51;3.13;;;1.75;;
48199;SDS011;33990;44.602;10.976;2023-03-26T20:36:19;3.65;;;1.80;;
48199;SDS011;33990;44.602;10.976;2023-03-26T20:39:03;3.83;;;1.70;;
48199;SDS011;33990;44.602;10.976;2023-03-26T20:41:34;4.43;;;2.05;;
48199;SDS011;33990;44.602;10.976;2023-03-26T20:44:12;5.03;;;1.90;;
48199;SDS011;33990;44.602;10.976;2023-03-26T20:46:41;5.80;;;2.03;;
48199;SDS011;33990;44.602;10.976;2023-03-26T20:49:10;3.22;;;1.60;;
48199;SDS011;33990;44.602;10.976;2023-03-26T20:51:38;5.00;;;1.52;;
48199;SDS011;33990;44.602;10.976;2023-03-26T20:54:11;5.78;;;1.88;;
48199;SDS011;33990;44.602;10.976;2023-03-26T20:56:49;4.10;;;1.95;;
48199;SDS011;33990;44.602;10.976;2023-03-26T20:59:21;2.67;;;1.48;;
48199;SDS011;33990;44.602;10.976;2023-03-26T21:01:53;3.22;;;1.65;;
48199;SDS011;33990;44.602;10.976;2023-03-26T21:04:23;3.70;;;1.65;;
48199;SDS011;33990;44.602;10.976;2023-03-26T21:06:52;2.92;;;1.33;;
48199;SDS011;33990;44.602;10.976;2023-03-26T21:09:32;3.95;;;1.45;;
48199;SDS011;33990;44.602;10.976;2023-03-26T21:12:02;4.45;;;1.75;;
48199;SDS011;33990;44.602;10.976;2023-03-26T21:14:36;3.97;;;1.42;;
48199;SDS011;33990;44.602;10.976;2023-03-26T21:17:17;3.88;;;1.90;;
48199;SDS011;33990;44.602;10.976;2023-03-26T21:19:46;6.18;;;1.60;;
48199;SDS011;33990;44.602;10.976;2023-03-26T21:30:24;2.65;;;1.40;;
48199;SDS011;33990;44.602;10.976;2023-03-26T21:32:53;2.85;;;1.35;;
48199;SDS011;33990;44.602;10.976;2023-03-26T21:35:20;4.03;;;1.50;;
48199;SDS011;33990;44.602;10.976;2023-03-26T21:37:48;3.90;;;1.48;;
48199;SDS011;33990;44.602;10.976;2023-03-26T21:40:16;3.40;;;1.70;;
48199;SDS011;33990;44.602;10.976;2023-03-26T21:42:45;5.40;;;1.60;;
48199;SDS011;33990;44.602;10.976;2023-03-26T21:45:15;2.83;;;1.33;;
48199;SDS011;33990;44.602;10.976;2023-03-26T21:47:43;5.68;;;1.50;;
48199;SDS011;33990;44.602;10.976;2023-03-26T21:50:13;4.85;;;1.90;;
48199;SDS011;33990;44.602;10.976;2023-03-26T21:52:43;3.85;;;1.58;;
48199;SDS011;33990;44.602;10.976;2023-03-26T22:00:24;6.20;;;1.38;;
48199;SDS011;33990;44.602;10.976;2023-03-26T22:06:00;5.57;;;1.20;;
48199;SDS011;33990;44.602;10.976;2023-03-26T22:08:37;3.17;;;1.42;;
48199;SDS011;33990;44.602;10.976;2023-03-26T22:11:06;2.70;;;1.33;;
48199;SDS011;33990;44.602;10.976;2023-03-26T22:13:36;3.25;;;1.40;;
48199;SDS011;33990;44.602;10.976;2023-03-26T22:16:05;3.20;;;1.38;;